Time;durP1;ratioP1;P1;durP2;ratioP2;P2;SDS_P1;SDS_P2;PMS_P1;PMS_P2;Temp;Humidity;BMP_temperature;BMP_pressure;BME280_temperature;BME280_humidity;BME280_pressure;Samples;Min_cycle;Max_cycle;Signal;HPM_P1;HPM_P2
2022/03/14 00:00:50;;;;;;;19.02;10.43;;;9.10;63.40;;;;;;4921462;29;20039;-81
2022/03/14 00:03:47;;;;;;;15.18;8.70;;;9.20;63.40;;;;;;4907708;29;20079;-81
2022/03/14 00:06:46;;;;;;;17.20;10.55;;;9.20;63.40;;;;;;4909364;29;20028;-83
2022/03/14 00:13:30;;;;;;;16.63;9.80;;;9.30;63.40;;;;;;4904727;29;20035;-83
2022/03/14 00:16:23;;;;;;;18.80;10.30;;;9.40;63.90;;;;;;4809587;29;20107;-81
2022/03/14 00:18:55;;;;;;;21.48;10.32;;;9.40;64.20;;;;;;4886906;29;20052;-82
2022/03/14 00:21:35;;;;;;;20.17;10.38;;;9.30;64.20;;;;;;4904716;29;20073;-82
2022/03/14 00:24:12;;;;;;;;;;;;;;;;;;;;;
2022/03/14 00:26:52;;;;;;;17.02;10.20;;;9.20;64.80;;;;;;4921481;29;20535;-81
2022/03/14 00:29:19;;;;;;;18.48;10.18;;;9.20;65.00;;;;;;4922060;29;20028;-83
2022/03/14 00:34:43;;;;;;;19.52;10.95;;;9.00;65.50;;;;;;4920824;29;20056;-82
2022/03/14 00:37:55;;;;;;;18.42;10.38;;;8.90;66.00;;;;;;4905669;29;20285;-83
2022/03/14 00:44:51;;;;;;;18.00;9.27;;;9.10;65.50;;;;;;4794261;30;20469;-83
2022/03/14 00:47:23;;;;;;;16.80;10.10;;;9.30;65.40;;;;;;4793619;29;20096;-81
2022/03/14 00:49:51;;;;;;;17.58;10.80;;;9.30;65.30;;;;;;4796819;30;20035;-84
2022/03/14 00:52:17;;;;;;;16.48;10.13;;;9.40;65.30;;;;;;4804174;29;20063;-80
2022/03/14 00:54:44;;;;;;;20.35;11.27;;;9.40;65.60;;;;;;4826860;29;20048;-81
2022/03/14 00:57:10;;;;;;;20.10;10.65;;;9.20;66.00;;;;;;4862005;29;20058;-82
2022/03/14 00:59:41;;;;;;;18.77;10.57;;;9.10;65.70;;;;;;4839113;29;20164;-80
2022/03/14 06:02:34;;;;;;;3.28;0.80;;;8.60;99.90;;;;;;5526954;23;20055;-79
2022/03/14 06:05:00;;;;;;;1.45;0.50;;;8.60;99.90;;;;;;4966458;29;20315;-82
2022/03/14 06:07:26;;;;;;;1.73;0.70;;;8.60;99.90;;;;;;4946560;29;20027;-81
2022/03/14 06:09:52;;;;;;;1.67;0.50;;;8.60;99.90;;;;;;4950095;29;20063;-81
2022/03/14 06:12:28;;;;;;;2.03;0.80;;;8.60;99.90;;;;;;4950082;29;20030;-81
2022/03/14 06:14:58;;;;;;;3.03;0.70;;;8.60;99.90;;;;;;4949966;29;20027;-82
2022/03/14 06:17:26;;;;;;;1.50;0.60;;;8.60;99.90;;;;;;4950275;29;20446;-83
2022/03/14 06:19:53;;;;;;;1.65;0.50;;;8.60;99.90;;;;;;4966622;29;20062;-82
2022/03/14 06:22:20;;;;;;;1.27;0.60;;;8.60;99.90;;;;;;4950144;29;20364;-81
2022/03/14 06:24:47;;;;;;;1.92;0.50;;;8.50;99.90;;;;;;4949811;29;20106;-84
2022/03/14 06:27:14;;;;;;;2.03;0.60;;;8.40;99.90;;;;;;4948936;29;20260;-84
2022/03/14 06:29:59;;;;;;;1.20;0.50;;;8.40;99.90;;;;;;4950242;29;20182;-81
2022/03/14 06:32:25;;;;;;;1.88;0.40;;;8.40;99.90;;;;;;4949669;29;20063;-82
2022/03/14 06:34:50;;;;;;;2.17;0.43;;;8.30;99.90;;;;;;4965421;29;20038;-81
2022/03/14 06:37:19;;;;;;;1.92;0.75;;;8.40;99.90;;;;;;4950370;29;20279;-80
2022/03/14 06:39:45;;;;;;;3.00;0.70;;;8.40;99.90;;;;;;4949523;29;20031;-79
2022/03/14 06:42:13;;;;;;;3.55;0.73;;;8.40;99.90;;;;;;4965171;29;20023;-83
2022/03/14 06:44:46;;;;;;;3.63;0.70;;;8.40;99.90;;;;;;4949174;29;20127;-81
2022/03/14 06:47:17;;;;;;;3.05;0.60;;;8.40;99.90;;;;;;4948504;29;20630;-82
2022/03/14 06:49:58;;;;;;;2.90;0.60;;;8.30;99.90;;;;;;4966695;29;20082;-81
2022/03/14 06:52:24;;;;;;;4.53;0.70;;;8.30;99.90;;;;;;4949319;29;20039;-81
2022/03/14 06:54:50;;;;;;;2.75;0.75;;;8.30;99.90;;;;;;4949311;28;20042;-84
2022/03/14 06:57:16;;;;;;;2.50;0.70;;;8.30;99.90;;;;;;4966197;29;20027;-83
2022/03/14 06:59:42;;;;;;;3.13;0.70;;;8.30;99.90;;;;;;4949203;29;20027;-82
2022/03/14 07:02:08;;;;;;;1.85;0.60;;;8.30;99.90;;;;;;4948400;28;20253;-82
2022/03/14 07:05:26;;;;;;;2.67;0.82;;;8.30;99.90;;;;;;4932145;29;20035;-82
2022/03/14 07:07:58;;;;;;;2.03;0.70;;;8.30;99.90;;;;;;4929082;29;20026;-81
2022/03/14 07:10:34;;;;;;;2.30;0.63;;;8.30;99.90;;;;;;4930034;29;20098;-81
2022/03/14 07:13:22;;;;;;;4.45;1.27;;;8.50;99.90;;;;;;4934903;29;20027;-82
2022/03/14 07:18:46;;;;;;;2.80;0.70;;;8.60;99.90;;;;;;4924221;29;20083;-81
2022/03/14 08:12:58;;;;;;;2.10;0.47;;;10.40;92.30;;;;;;5155769;23;20048;-80
2022/03/14 12:26:23;;;;;;;2.35;0.57;;;24.50;47.10;;;;;;4956692;29;20241;-83
2022/03/14 12:50:18;;;;;;;;;;;;;;;;;;;;;
2022/03/14 13:24:21;;;;;;;;;;;;;;;;;;;;;
2022/03/14 13:27:44;;;;;;;2.25;0.50;;;21.30;50.10;;;;;;4906871;29;20076;-82
2022/03/14 13:35:11;;;;;;;1.77;0.50;;;22.90;49.70;;;;;;4906061;29;20068;-82
2022/03/14 13:42:09;;;;;;;4.30;0.50;;;24.10;46.60;;;;;;4849844;29;20029;-82
2022/03/14 13:49:28;;;;;;;4.80;0.60;;;29.10;43.80;;;;;;4821428;29;20062;-85
2022/03/14 13:52:26;;;;;;;3.08;0.65;;;30.70;42.80;;;;;;4793972;30;20049;-84
2022/03/14 13:55:11;;;;;;;2.25;0.60;;;29.90;42.80;;;;;;4806345;29;20078;-82
2022/03/14 14:20:58;;;;;;;2.33;0.50;;;31.90;41.10;;;;;;5884207;23;20070;-81
2022/03/14 16:11:56;;;;;;;3.05;0.68;;;28.40;42.40;;;;;;4733555;30;20052;-80
2022/03/14 16:33:59;;;;;;;3.40;1.00;;;27.00;43.30;;;;;;5253651;23;20115;-83
2022/03/14 16:36:28;;;;;;;3.90;0.82;;;25.30;45.00;;;;;;4940993;29;20024;-82
2022/03/14 17:19:43;;;;;;;4.22;1.15;;;15.50;61.40;;;;;;4964096;29;20347;-81
2022/03/14 17:26:57;;;;;;;3.33;0.70;;;14.80;62.80;;;;;;4963484;29;20038;-81
2022/03/14 17:29:35;;;;;;;4.88;1.30;;;14.40;64.40;;;;;;4946474;29;20027;-82
2022/03/14 17:32:41;;;;;;;2.75;0.80;;;14.10;65.60;;;;;;4944847;29;20035;-83
2022/03/14 17:38:38;;;;;;;5.93;1.10;;;13.70;67.40;;;;;;4946234;29;20043;-82
2022/03/14 17:45:39;;;;;;;4.35;0.95;;;13.30;68.40;;;;;;4967299;29;20041;-82
2022/03/14 17:48:14;;;;;;;6.63;1.27;;;13.10;69.10;;;;;;4965552;29;20100;-80
2022/03/14 17:51:08;;;;;;;5.13;1.00;;;13.00;69.50;;;;;;4935551;29;20023;-81
2022/03/14 17:53:56;;;;;;;5.80;1.35;;;12.90;70.00;;;;;;4931134;29;20380;-81
2022/03/14 17:57:12;;;;;;;4.75;1.30;;;12.80;70.60;;;;;;4927869;29;20044;-80
2022/03/14 18:00:13;;;;;;;3.72;1.40;;;12.70;70.90;;;;;;4933425;29;20106;-81
2022/03/14 18:29:58;;;;;;;9.13;2.60;;;12.00;73.70;;;;;;5640679;23;20063;-81
2022/03/14 18:37:18;;;;;;;5.00;2.42;;;11.70;74.50;;;;;;4966772;29;20037;-80
2022/03/14 18:41:12;;;;;;;7.10;2.08;;;11.50;74.70;;;;;;4939488;29;20040;-79
2022/03/14 18:44:05;;;;;;;6.22;2.00;;;11.50;75.40;;;;;;4939159;29;20039;-81
2022/03/14 18:46:31;;;;;;;11.38;3.47;;;11.40;76.00;;;;;;4895626;29;20051;-81
2022/03/14 18:49:06;;;;;;;11.57;3.90;;;11.40;75.70;;;;;;4910066;29;20039;-82
2022/03/14 18:51:51;;;;;;;10.32;3.00;;;11.40;75.70;;;;;;4909274;29;20032;-82
2022/03/14 18:54:54;;;;;;;8.80;3.35;;;11.40;75.90;;;;;;4899697;29;20125;-82
2022/03/14 18:58:11;;;;;;;10.52;4.05;;;11.30;76.60;;;;;;4910278;29;20306;-84
2022/03/14 19:01:00;;;;;;;8.05;3.83;;;11.20;76.90;;;;;;4893746;29;20032;-81
2022/03/14 19:03:32;;;;;;;8.15;3.85;;;11.10;77.20;;;;;;4894017;29;20253;-81
2022/03/14 19:14:18;;;;;;;10.10;4.22;;;10.70;78.60;;;;;;4909507;29;20036;-83
2022/03/14 19:16:57;;;;;;;9.20;4.47;;;10.60;79.10;;;;;;4891840;29;20137;-84
2022/03/14 19:19:39;;;;;;;10.32;4.35;;;10.50;79.50;;;;;;4948038;29;20042;-82
2022/03/14 19:22:21;;;;;;;;;;;;;;;;;;;;;
2022/03/14 19:24:51;;;;;;;9.02;4.05;;;10.30;80.10;;;;;;4960061;29;20356;-81
2022/03/14 19:27:30;;;;;;;8.63;4.10;;;10.20;80.70;;;;;;4963732;29;20065;-83
2022/03/14 19:30:02;;;;;;;9.10;3.85;;;10.10;80.90;;;;;;4964411;29;20333;-82
2022/03/14 19:32:37;;;;;;;9.77;3.60;;;10.20;80.80;;;;;;4919296;29;20138;-81
2022/03/14 19:35:34;;;;;;;8.40;4.32;;;10.20;80.30;;;;;;4929558;29;20027;-83
2022/03/14 19:38:55;;;;;;;10.90;4.95;;;10.30;80.20;;;;;;4947845;29;20042;-82
2022/03/14 19:41:48;;;;;;;11.93;5.00;;;10.20;80.40;;;;;;4924653;29;20035;-84
2022/03/14 19:45:09;;;;;;;11.25;5.20;;;10.10;80.90;;;;;;4930989;29;20032;-85
2022/03/14 19:47:38;;;;;;;12.55;4.88;;;9.90;82.00;;;;;;4918059;29;20036;-83
2022/03/14 19:50:04;;;;;;;14.45;4.97;;;9.70;82.50;;;;;;4914928;29;20028;-81
2022/03/14 19:52:30;;;;;;;10.98;4.82;;;9.70;82.90;;;;;;4926465;29;20211;-81
2022/03/14 19:55:20;;;;;;;11.98;4.93;;;9.60;83.40;;;;;;4927236;29;21562;-84
2022/03/14 19:58:18;;;;;;;10.95;4.90;;;9.50;83.90;;;;;;4906719;29;20024;-81
2022/03/14 20:04:20;;;;;;;15.63;5.28;;;9.40;84.50;;;;;;4889612;29;20116;-84
2022/03/14 20:07:03;;;;;;;10.70;4.95;;;9.30;84.70;;;;;;4886901;29;20109;-81
2022/03/14 20:14:13;;;;;;;12.18;4.88;;;9.30;84.90;;;;;;4884752;29;20027;-83
2022/03/14 21:54:01;;;;;;;10.25;4.32;;;8.20;89.50;;;;;;4804883;29;20033;-80
2022/03/14 22:09:01;;;;;;;10.27;4.13;;;8.10;89.70;;;;;;4816416;29;20030;-81
2022/03/14 22:12:28;;;;;;;15.13;6.72;;;8.00;90.20;;;;;;4796893;29;20042;-79
2022/03/14 22:47:54;;;;;;;9.95;4.60;;;7.70;90.80;;;;;;4688430;30;20053;-78
2022/03/14 22:58:50;;;;;;;7.60;4.25;;;7.80;90.70;;;;;;4559153;31;20148;-80
2022/03/14 23:09:49;;;;;;;8.00;3.80;;;7.90;90.20;;;;;;4690775;30;20168;-80
2022/03/14 23:13:14;;;;;;;9.55;3.95;;;7.90;90.20;;;;;;4679815;30;20045;-80
2022/03/14 23:15:52;;;;;;;9.73;4.07;;;7.90;90.30;;;;;;4681632;30;20037;-79
2022/03/14 23:18:31;;;;;;;10.80;4.25;;;7.90;90.50;;;;;;4728184;30;20124;-80
2022/03/14 23:21:29;;;;;;;15.18;4.80;;;7.90;90.50;;;;;;4748732;30;20039;-82
2022/03/14 23:23:55;;;;;;;8.02;4.75;;;7.90;90.40;;;;;;4778325;30;20039;-81
2022/03/14 23:29:41;;;;;;;7.18;4.05;;;7.70;91.00;;;;;;4777962;30;20030;-82
2022/03/14 23:32:07;;;;;;;10.00;4.63;;;7.70;91.00;;;;;;4777327;29;20056;-82
2022/03/14 23:34:33;;;;;;;13.25;4.57;;;7.70;90.80;;;;;;4798652;29;20045;-81
2022/03/14 23:40:45;;;;;;;9.93;4.78;;;7.80;90.70;;;;;;4907402;29;20080;-81
2022/03/14 23:43:14;;;;;;;9.55;4.03;;;7.80;91.00;;;;;;4875624;29;20032;-81
2022/03/14 23:46:06;;;;;;;9.40;4.22;;;7.60;91.00;;;;;;4894113;29;20122;-82
2022/03/14 23:48:32;;;;;;;7.82;4.10;;;7.60;91.00;;;;;;4893338;29;20032;-83
2022/03/14 23:51:01;;;;;;;8.65;4.63;;;7.60;90.70;;;;;;4910320;29;20028;-82
2022/03/14 23:53:27;;;;;;;8.75;4.20;;;7.70;90.70;;;;;;4926130;29;20262;-83
2022/03/14 23:56:16;;;;;;;6.95;3.88;;;7.70;90.70;;;;;;4911941;29;20129;-83
2022/03/14 23:58:45;;;;;;;9.88;4.38;;;7.70;90.70;;;;;;4910443;29;20048;-83
